Time,TemperatureF,DewpointF,PressureIn,WindDirection,WindDirectionDegrees,WindSpeedMPH,WindSpeedGustMPH,Humidity,HourlyPrecipIn,Conditions,Clouds,dailyrainin,SolarRadiationWatts/m^2,SoftwareType,DateUTC
2014-09-01 00:01:00,68.4,68.1,29.96,SW,235,0.0,0.0,99,0.00,RA,SKC,0.00,0.0,WeatherDisplay:10.37,2014-09-01 04:01:00,
2014-09-01 00:04:00,68.4,68.1,29.96,SW,235,0.0,0.0,99,0.00,RA,SKC,0.00,0.0,WeatherDisplay:10.37,2014-09-01 04:04:00,
2014-09-01 00:09:00,68.2,67.9,29.96,SW,235,0.0,0.0,99,0.00,RA,SKC,0.00,0.0,WeatherDisplay:10.37,2014-09-01 04:09:00,
2014-09-01 00:14:00,68.0,67.7,29.96,SW,235,0.0,0.0,99,0.00,CLR,SKC,0.00,0.0,WeatherDisplay:10.37,2014-09-01 04:14:00,
2014-09-01 00:19:00,68.0,67.7,29.96,SW,235,0.0,0.0,99,0.00,CLR,SKC,0.00,0.0,WeatherDisplay:10.37,2014-09-01 04:19:00,
2014-09-01 00:24:00,67.9,67.6,29.97,SW,235,0.0,0.0,99,0.00,CLR,SKC,0.00,0.0,WeatherDisplay:10.37,2014-09-01 04:24:00,
2014-09-01 00:29:00,67.9,67.6,29.97,SW,235,0.0,0.0,99,0.00,CLR,SKC,0.00,0.0,WeatherDisplay:10.37,2014-09-01 04:29:00,
2014-09-01 00:34:00,67.8,67.5,29.97,SW,235,0.0,0.0,99,0.00,CLR,SKC,0.00,0.0,WeatherDisplay:10.37,2014-09-01 04:34:00,
2014-09-01 00:39:00,67.7,67.4,29.97,SW,235,0.0,0.0,99,0.00,CLR,SKC,0.00,0.0,WeatherDisplay:10.37,2014-09-01 04:39:00,
2014-09-01 00:44:00,67.7,67.4,29.97,SW,235,0.0,0.0,99,0.00,CLR,SKC,0.00,0.0,WeatherDisplay:10.37,2014-09-01 04:44:00,
2014-09-01 00:49:00,67.8,67.5,29.96,SW,235,0.0,0.0,99,0.00,CLR,SKC,0.00,0.0,WeatherDisplay:10.37,2014-09-01 04:49:00,
2014-09-01 00:54:00,67.7,67.4,29.97,SW,235,0.0,0.0,99,0.00,CLR,SKC,0.00,0.0,WeatherDisplay:10.37,2014-09-01 04:54:00,
2014-09-01 00:59:00,67.7,67.4,29.97,SW,235,0.0,0.0,99,0.00,CLR,SKC,0.00,0.0,WeatherDisplay:10.37,2014-09-01 04:59:00,
2014-09-01 01:04:00,67.7,67.4,29.97,SW,235,0.0,0.0,99,0.00,CLR,SKC,0.00,0.0,WeatherDisplay:10.37,2014-09-01 05:04:00,
2014-09-01 01:09:00,67.5,67.2,29.96,SW,235,0.0,0.0,99,0.00,CLR,SKC,0.00,0.0,WeatherDisplay:10.37,2014-09-01 05:09:00,
2014-09-01 01:14:00,67.5,67.2,29.97,SW,235,0.0,0.0,99,0.00,CLR,SKC,0.00,0.0,WeatherDisplay:10.37,2014-09-01 05:14:00,
2014-09-01 01:19:00,67.8,67.5,29.96,SW,234,1.2,0.0,99,0.00,CLR,SKC,0.00,0.0,WeatherDisplay:10.37,2014-09-01 05:19:00,
2014-09-01 01:24:00,68.0,67.7,29.96,SSW,207,0.0,0.0,99,0.00,CLR,SKC,0.00,0.0,WeatherDisplay:10.37,2014-09-01 05:24:00,
2014-09-01 01:29:00,67.7,67.4,29.96,SSW,207,0.0,0.0,99,0.00,CLR,SKC,0.00,0.0,WeatherDisplay:10.37,2014-09-01 05:29:00,
2014-09-01 01:34:00,67.9,67.6,29.96,SW,228,0.0,0.0,99,0.00,CLR,SKC,0.00,0.0,WeatherDisplay:10.37,2014-09-01 05:34:00,
2014-09-01 01:39:00,67.9,67.6,29.97,West,260,0.0,0.0,99,0.00,CLR,SKC,0.00,0.0,WeatherDisplay:10.37,2014-09-01 05:39:00,
2014-09-01 01:44:00,67.8,67.5,29.96,West,260,0.0,0.0,99,0.00,CLR,SKC,0.00,0.0,WeatherDisplay:10.37,2014-09-01 05:44:00,
2014-09-01 01:49:00,67.8,67.5,29.96,WSW,250,0.0,0.0,99,0.00,CLR,SKC,0.00,0.0,WeatherDisplay:10.37,2014-09-01 05:49:00,
2014-09-01 01:54:00,67.8,67.5,29.97,WSW,251,0.0,0.0,99,0.00,CLR,SKC,0.00,0.0,WeatherDisplay:10.37,2014-09-01 05:54:00,
2014-09-01 01:59:00,67.6,67.3,29.97,WSW,250,0.0,0.0,99,0.00,CLR,SKC,0.00,0.0,WeatherDisplay:10.37,2014-09-01 05:59:00,
2014-09-01 02:04:00,67.5,67.2,29.97,WSW,250,0.0,0.0,99,0.00,CLR,SKC,0.00,0.0,WeatherDisplay:10.37,2014-09-01 06:04:00,
2014-09-01 02:09:00,67.6,67.3,29.97,WSW,244,0.0,0.0,99,0.00,CLR,SKC,0.00,0.0,WeatherDisplay:10.37,2014-09-01 06:09:00,
2014-09-01 02:14:00,67.6,67.3,29.97,WSW,248,1.2,0.0,99,0.00,CLR,SKC,0.00,0.0,WeatherDisplay:10.37,2014-09-01 06:14:00,
2014-09-01 02:19:00,67.6,67.3,29.97,WSW,248,1.2,1.2,99,0.00,CLR,SKC,0.00,0.0,WeatherDisplay:10.37,2014-09-01 06:19:00,
2014-09-01 02:24:00,67.6,67.3,29.96,WSW,249,0.0,0.0,99,0.00,CLR,SKC,0.00,0.0,WeatherDisplay:10.37,2014-09-01 06:24:00,
2014-09-01 02:29:00,67.7,67.4,29.96,WSW,249,0.0,0.0,99,0.00,CLR,SKC,0.00,0.0,WeatherDisplay:10.37,2014-09-01 06:29:00,
2014-09-01 02:34:00,67.6,67.3,29.97,WSW,249,0.0,0.0,99,0.00,CLR,SKC,0.00,0.0,WeatherDisplay:10.37,2014-09-01 06:34:00,
2014-09-01 02:39:00,67.6,67.3,29.97,WSW,249,0.0,0.0,99,0.00,CLR,SKC,0.00,0.0,WeatherDisplay:10.37,2014-09-01 06:39:00,
2014-09-01 02:44:00,67.5,67.2,29.97,WSW,249,0.0,0.0,99,0.00,CLR,SKC,0.00,0.0,WeatherDisplay:10.37,2014-09-01 06:44:00,
2014-09-01 02:49:00,67.6,67.3,29.97,WSW,249,0.0,0.0,99,0.00,CLR,SKC,0.00,0.0,WeatherDisplay:10.37,2014-09-01 06:49:00,
2014-09-01 02:54:00,67.6,67.3,29.97,WSW,249,0.0,0.0,99,0.00,CLR,SKC,0.00,0.0,WeatherDisplay:10.37,2014-09-01 06:54:00,
2014-09-01 02:59:00,67.5,67.2,29.97,WNW,292,0.0,0.0,99,0.00,CLR,SKC,0.00,0.0,WeatherDisplay:10.37,2014-09-01 06:59:00,
2014-09-01 03:04:00,67.2,66.9,29.97,WNW,292,0.0,0.0,99,0.00,CLR,SKC,0.00,0.0,WeatherDisplay:10.37,2014-09-01 07:04:00,
2014-09-01 03:09:00,67.2,66.9,29.97,WNW,292,0.0,0.0,99,0.00,CLR,SKC,0.00,0.0,WeatherDisplay:10.37,2014-09-01 07:09:00,
2014-09-01 03:14:00,66.9,66.6,29.97,WNW,292,0.0,0.0,99,0.00,CLR,SKC,0.00,0.0,WeatherDisplay:10.37,2014-09-01 07:14:00,
2014-09-01 03:19:00,66.9,66.6,29.97,WNW,292,0.0,0.0,99,0.00,CLR,SKC,0.00,0.0,WeatherDisplay:10.37,2014-09-01 07:19:00,
2014-09-01 03:24:00,66.9,66.6,29.97,WNW,292,0.0,0.0,99,0.00,CLR,SKC,0.00,0.0,WeatherDisplay:10.37,2014-09-01 07:24:00,
2014-09-01 03:29:00,66.9,66.6,29.97,WNW,292,0.0,0.0,99,0.00,CLR,SKC,0.00,0.0,WeatherDisplay:10.37,2014-09-01 07:29:00,
2014-09-01 03:34:00,67.0,66.7,29.97,WNW,292,0.0,0.0,99,0.00,CLR,SKC,0.00,0.0,WeatherDisplay:10.37,2014-09-01 07:34:00,
2014-09-01 03:39:00,66.8,66.5,29.97,WNW,292,0.0,0.0,99,0.00,CLR,SKC,0.00,0.0,WeatherDisplay:10.37,2014-09-01 07:39:00,
2014-09-01 03:44:00,66.5,66.2,29.97,WNW,292,0.0,0.0,99,0.00,CLR,SKC,0.00,0.0,WeatherDisplay:10.37,2014-09-01 07:44:00,
2014-09-01 03:49:00,66.4,66.1,29.98,WNW,290,0.0,0.0,99,0.00,CLR,SKC,0.00,0.0,WeatherDisplay:10.37,2014-09-01 07:49:00,
2014-09-01 03:54:00,66.4,66.1,29.98,WNW,290,0.0,0.0,99,0.00,CLR,SKC,0.00,0.0,WeatherDisplay:10.37,2014-09-01 07:54:00,
2014-09-01 03:59:00,66.5,66.2,29.98,WSW,248,0.0,0.0,99,0.00,CLR,SKC,0.00,0.0,WeatherDisplay:10.37,2014-09-01 07:59:00,
2014-09-01 04:04:00,66.6,66.3,29.98,WSW,248,0.0,0.0,99,0.00,CLR,SKC,0.00,0.0,WeatherDisplay:10.37,2014-09-01 08:04:00,
2014-09-01 04:09:00,66.6,66.3,29.97,WSW,248,0.0,0.0,99,0.00,CLR,SKC,0.00,0.0,WeatherDisplay:10.37,2014-09-01 08:09:00,
2014-09-01 04:14:00,66.3,66.0,29.97,WSW,248,0.0,0.0,99,0.00,CLR,SKC,0.00,0.0,WeatherDisplay:10.37,2014-09-01 08:14:00,
2014-09-01 04:19:00,66.4,66.1,29.97,WSW,248,0.0,0.3,99,0.00,CLR,SKC,0.00,0.0,WeatherDisplay:10.37,2014-09-01 08:19:00,
2014-09-01 04:24:00,66.6,66.3,29.97,WSW,251,0.0,0.0,99,0.00,CLR,SKC,0.00,0.0,WeatherDisplay:10.37,2014-09-01 08:24:00,
2014-09-01 04:29:00,66.6,66.3,29.97,West,263,1.0,0.0,99,0.00,CLR,SKC,0.00,0.0,WeatherDisplay:10.37,2014-09-01 08:29:00,
2014-09-01 04:34:00,66.5,66.2,29.97,SW,233,0.0,0.0,99,0.00,CLR,SKC,0.00,0.0,WeatherDisplay:10.37,2014-09-01 08:34:00,
2014-09-01 04:39:00,66.4,66.1,29.98,SW,233,0.0,0.0,99,0.00,CLR,SKC,0.00,0.0,WeatherDisplay:10.37,2014-09-01 08:39:00,
2014-09-01 04:44:00,66.3,66.0,29.97,SW,233,0.0,0.0,99,0.00,CLR,SKC,0.00,0.0,WeatherDisplay:10.37,2014-09-01 08:44:00,
2014-09-01 04:49:00,66.3,66.0,29.98,SW,233,0.0,0.0,99,0.00,CLR,SKC,0.00,0.0,WeatherDisplay:10.37,2014-09-01 08:49:00,
2014-09-01 04:54:00,66.3,66.0,29.97,SW,233,0.0,0.0,99,0.00,CLR,SKC,0.00,0.0,WeatherDisplay:10.37,2014-09-01 08:54:00,
2014-09-01 04:59:00,66.4,66.1,29.98,SW,233,0.0,0.0,99,0.00,CLR,SKC,0.00,0.0,WeatherDisplay:10.37,2014-09-01 08:59:00,
2014-09-01 05:04:00,66.3,66.0,29.98,SW,233,0.0,0.0,99,0.00,CLR,SKC,0.00,0.0,WeatherDisplay:10.37,2014-09-01 09:04:00,
2014-09-01 05:09:00,66.2,65.9,29.98,SW,233,0.0,0.0,99,0.00,CLR,SKC,0.00,0.0,WeatherDisplay:10.37,2014-09-01 09:09:00,
2014-09-01 05:14:00,66.3,66.0,29.98,SW,233,0.0,0.0,99,0.00,CLR,SKC,0.00,0.0,WeatherDisplay:10.37,2014-09-01 09:14:00,
2014-09-01 05:19:00,66.3,66.0,29.98,SW,233,0.0,0.0,99,0.00,CLR,SKC,0.00,0.0,WeatherDisplay:10.37,2014-09-01 09:19:00,
2014-09-01 05:24:00,66.0,65.7,29.99,SW,233,0.0,0.0,99,0.00,CLR,SKC,0.00,0.0,WeatherDisplay:10.37,2014-09-01 09:24:00,
2014-09-01 05:29:00,65.8,65.5,29.99,SW,233,0.0,0.0,99,0.00,CLR,SKC,0.00,0.0,WeatherDisplay:10.37,2014-09-01 09:29:00,
2014-09-01 05:34:00,65.6,65.3,29.99,SW,233,0.0,0.0,99,0.00,CLR,SKC,0.00,0.0,WeatherDisplay:10.37,2014-09-01 09:34:00,
2014-09-01 05:39:00,65.7,65.4,29.99,SW,233,0.0,0.0,99,0.00,CLR,SKC,0.00,0.0,WeatherDisplay:10.37,2014-09-01 09:39:00,
2014-09-01 05:44:00,65.7,65.4,29.99,SW,233,0.0,0.0,99,0.00,CLR,SKC,0.00,0.0,WeatherDisplay:10.37,2014-09-01 09:44:00,
2014-09-01 05:49:00,65.5,65.2,30.00,SW,233,0.0,0.0,99,0.00,CLR,SKC,0.00,0.0,WeatherDisplay:10.37,2014-09-01 09:49:00,
2014-09-01 05:54:00,65.5,65.2,30.00,SW,233,0.0,0.0,99,0.00,CLR,SKC,0.00,0.0,WeatherDisplay:10.37,2014-09-01 09:54:00,
2014-09-01 05:59:00,65.4,65.1,30.00,SW,233,0.0,0.0,99,0.00,CLR,SKC,0.00,0.0,WeatherDisplay:10.37,2014-09-01 09:59:00,
2014-09-01 06:04:00,65.2,64.9,30.00,SW,233,0.0,0.0,99,0.00,CLR,SKC,0.00,0.0,WeatherDisplay:10.37,2014-09-01 10:04:00,
2014-09-01 06:09:00,65.1,64.8,30.00,SW,233,0.0,0.0,99,0.00,CLR,SKC,0.00,0.0,WeatherDisplay:10.37,2014-09-01 10:09:00,
2014-09-01 06:14:00,65.1,64.8,30.00,SW,233,0.0,0.0,99,0.00,CLR,SKC,0.00,0.0,WeatherDisplay:10.37,2014-09-01 10:14:00,
2014-09-01 06:19:00,65.0,64.7,30.00,SW,233,0.0,0.0,99,0.00,CLR,SKC,0.00,0.0,WeatherDisplay:10.37,2014-09-01 10:19:00,
2014-09-01 06:24:00,65.1,64.8,30.01,SW,233,0.0,0.0,99,0.00,BKN,SKC,0.00,5.0,WeatherDisplay:10.37,2014-09-01 10:24:00,
2014-09-01 06:29:00,65.1,64.8,30.00,SW,233,0.0,0.0,99,0.00,BKN,SKC,0.00,7.0,WeatherDisplay:10.37,2014-09-01 10:29:00,
2014-09-01 06:34:00,65.1,64.8,30.00,SW,233,0.0,0.0,99,0.00,BKN,SKC,0.00,11.0,WeatherDisplay:10.37,2014-09-01 10:34:00,
2014-09-01 06:39:00,65.1,64.8,30.00,SW,233,0.0,0.0,99,0.00,BKN,SKC,0.00,16.0,WeatherDisplay:10.37,2014-09-01 10:39:00,
2014-09-01 06:44:00,64.8,64.5,30.00,SW,233,0.0,0.0,99,0.00,BKN,SKC,0.00,18.0,WeatherDisplay:10.37,2014-09-01 10:44:00,
2014-09-01 06:49:00,64.8,64.5,30.00,SW,233,0.0,0.0,99,0.00,BKN,SKC,0.00,21.0,WeatherDisplay:10.37,2014-09-01 10:49:00,
2014-09-01 06:54:00,65.0,64.7,30.00,SW,233,0.0,0.0,99,0.00,BKN,SKC,0.00,32.0,WeatherDisplay:10.37,2014-09-01 10:54:00,
2014-09-01 06:59:00,65.2,64.9,30.00,SW,233,0.0,0.0,99,0.00,BKN,SKC,0.00,44.0,WeatherDisplay:10.37,2014-09-01 10:59:00,
2014-09-01 07:04:00,65.4,65.1,30.00,SW,233,0.0,0.0,99,0.00,SCT,SKC,0.00,60.0,WeatherDisplay:10.37,2014-09-01 11:04:00,
2014-09-01 07:09:00,65.5,65.2,30.01,SW,233,0.0,0.0,99,0.00,BKN,SKC,0.00,63.0,WeatherDisplay:10.37,2014-09-01 11:09:00,
2014-09-01 07:14:00,65.5,65.2,30.01,SW,233,0.0,0.0,99,0.00,BKN,SKC,0.00,53.0,WeatherDisplay:10.37,2014-09-01 11:14:00,
2014-09-01 07:19:00,65.9,65.6,30.01,SW,233,0.0,0.0,99,0.00,BKN,SKC,0.00,37.0,WeatherDisplay:10.37,2014-09-01 11:19:00,
2014-09-01 07:24:00,66.1,65.8,30.01,SW,233,0.0,0.0,99,0.00,BKN,SKC,0.00,30.0,WeatherDisplay:10.37,2014-09-01 11:24:00,
2014-09-01 07:29:00,66.2,65.9,30.01,SW,233,0.0,0.0,99,0.00,BKN,SKC,0.00,37.0,WeatherDisplay:10.37,2014-09-01 11:29:00,
2014-09-01 07:34:00,66.0,65.7,30.01,SW,233,1.2,1.2,99,0.00,BKN,SKC,0.00,40.0,WeatherDisplay:10.37,2014-09-01 11:34:00,
2014-09-01 07:39:00,66.1,65.8,30.01,SW,233,0.0,0.0,99,0.00,BKN,SKC,0.00,37.0,WeatherDisplay:10.37,2014-09-01 11:39:00,
2014-09-01 07:44:00,66.4,66.1,30.01,SW,233,0.0,0.0,99,0.00,BKN,SKC,0.00,35.0,WeatherDisplay:10.37,2014-09-01 11:44:00,
2014-09-01 07:49:00,66.8,66.5,30.01,SW,233,0.0,0.0,99,0.00,BKN,SKC,0.00,33.0,WeatherDisplay:10.37,2014-09-01 11:49:00,
2014-09-01 07:54:00,67.1,67.1,30.01,SW,233,0.0,0.0,100,0.00,BKN,SKC,0.00,39.0,WeatherDisplay:10.37,2014-09-01 11:54:00,
2014-09-01 07:59:00,67.6,67.6,30.01,SW,233,0.0,0.0,100,0.00,BKN,SKC,0.00,44.0,WeatherDisplay:10.37,2014-09-01 11:59:00,
2014-09-01 08:04:00,67.8,67.5,30.01,SW,233,0.0,0.0,99,0.00,BKN,SKC,0.00,44.0,WeatherDisplay:10.37,2014-09-01 12:04:00,
2014-09-01 08:09:00,67.9,67.6,30.01,SW,233,0.0,0.0,99,0.00,BKN,SKC,0.00,46.0,WeatherDisplay:10.37,2014-09-01 12:09:00,
2014-09-01 08:14:00,68.0,67.7,30.01,SW,233,0.0,0.0,99,0.00,BKN,SKC,0.00,47.0,WeatherDisplay:10.37,2014-09-01 12:14:00,
2014-09-01 08:19:00,68.3,68.3,30.01,SW,233,0.0,0.0,100,0.00,BKN,SKC,0.00,49.0,WeatherDisplay:10.37,2014-09-01 12:19:00,
2014-09-01 08:24:00,68.3,68.3,30.01,SW,233,0.0,0.0,100,0.00,BKN,SKC,0.00,49.0,WeatherDisplay:10.37,2014-09-01 12:24:00,
2014-09-01 08:29:00,68.5,68.2,30.01,SW,236,0.0,0.1,99,0.00,BKN,SKC,0.00,54.0,WeatherDisplay:10.37,2014-09-01 12:29:00,
2014-09-01 08:34:00,68.6,68.3,30.01,WSW,240,0.0,0.0,99,0.00,BKN,SKC,0.00,62.0,WeatherDisplay:10.37,2014-09-01 12:34:00,
2014-09-01 08:39:00,68.7,68.4,30.01,SW,220,1.2,0.0,99,0.00,BKN,SKC,0.00,65.0,WeatherDisplay:10.37,2014-09-01 12:39:00,
2014-09-01 08:44:00,68.8,68.8,30.01,WNW,291,2.3,2.3,100,0.00,BKN,SKC,0.00,58.0,WeatherDisplay:10.37,2014-09-01 12:44:00,
2014-09-01 08:49:00,68.9,68.9,30.01,West,261,0.0,0.0,100,0.00,BKN,SKC,0.00,134.0,WeatherDisplay:10.37,2014-09-01 12:49:00,
2014-09-01 08:54:00,69.0,69.0,30.00,West,265,0.0,0.0,100,0.00,BKN,SKC,0.00,54.0,WeatherDisplay:10.37,2014-09-01 12:54:00,
2014-09-01 08:59:00,69.2,68.9,30.00,NNW,341,2.3,2.3,99,0.00,BKN,SKC,0.00,76.0,WeatherDisplay:10.37,2014-09-01 12:59:00,
2014-09-01 09:04:00,69.4,69.1,30.00,West,281,0.0,0.0,99,0.00,BKN,SKC,0.00,88.0,WeatherDisplay:10.37,2014-09-01 13:04:00,
2014-09-01 09:07:00,69.4,69.1,30.00,WSW,256,0.0,0.1,99,0.00,BKN,SKC,0.00,53.0,WeatherDisplay:10.37,2014-09-01 13:07:00,
2014-09-01 09:09:00,69.4,69.1,30.00,WSW,256,0.0,0.1,99,0.00,BKN,SKC,0.00,53.0,WeatherDisplay:10.37,2014-09-01 13:09:00,
2014-09-01 09:14:00,69.4,69.1,30.00,WSW,256,0.0,0.1,99,0.00,BKN,SKC,0.00,53.0,WeatherDisplay:10.37,2014-09-01 13:14:00,
2014-09-01 09:39:00,69.4,69.1,30.00,WSW,256,0.0,0.1,99,0.00,BKN,SKC,0.00,53.0,WeatherDisplay:10.37,2014-09-01 13:39:00,
2014-09-01 10:03:00,71.7,69.3,30.00,West,272,1.0,9.0,92,0.00,BKN,SKC,0.00,102.0,WeatherDisplay:10.37,2014-09-01 14:03:00,
2014-09-01 10:04:00,69.4,69.1,30.00,WSW,256,0.0,0.1,99,0.00,BKN,SKC,0.00,53.0,WeatherDisplay:10.37,2014-09-01 14:04:00,
2014-09-01 10:09:00,69.4,69.1,30.00,WSW,256,0.0,0.1,99,0.00,BKN,SKC,0.00,53.0,WeatherDisplay:10.37,2014-09-01 14:09:00,
2014-09-01 10:13:00,71.7,69.3,30.00,West,270,1.0,9.0,92,0.00,BKN,SKC,0.00,102.0,WeatherDisplay:10.37,2014-09-01 14:13:00,
2014-09-01 10:14:00,69.4,69.1,30.00,WSW,256,0.0,0.1,99,0.00,BKN,SKC,0.00,53.0,WeatherDisplay:10.37,2014-09-01 14:14:00,
2014-09-01 10:23:00,71.7,69.3,30.00,West,270,1.0,9.0,92,0.00,BKN,SKC,0.00,102.0,WeatherDisplay:10.37,2014-09-01 14:23:00,
2014-09-01 10:33:00,73.3,69.2,29.99,West,270,0.0,9.0,87,0.00,SCT,SKC,0.00,413.0,WeatherDisplay:10.37,2014-09-01 14:33:00,
2014-09-01 10:43:00,73.3,69.2,29.99,West,270,0.0,4.0,87,0.00,SCT,SKC,0.00,413.0,WeatherDisplay:10.37,2014-09-01 14:43:00,
2014-09-01 10:53:00,73.3,69.2,29.99,West,270,0.0,4.0,87,0.00,SCT,SKC,0.00,413.0,WeatherDisplay:10.37,2014-09-01 14:53:00,
2014-09-01 11:03:00,75.9,70.7,29.98,West,270,0.0,4.0,84,0.00,BKN,SKC,0.00,331.0,WeatherDisplay:10.37,2014-09-01 15:03:00,
2014-09-01 11:13:00,75.9,70.7,29.98,West,270,0.0,1.0,84,0.00,BKN,SKC,0.00,331.0,WeatherDisplay:10.37,2014-09-01 15:13:00,
2014-09-01 11:23:00,75.9,70.7,29.98,West,270,0.0,1.0,84,0.00,BKN,SKC,0.00,331.0,WeatherDisplay:10.37,2014-09-01 15:23:00,
2014-09-01 11:33:00,77.0,69.6,29.99,West,270,0.0,5.0,78,0.00,CLR,SKC,0.00,766.0,WeatherDisplay:10.37,2014-09-01 15:33:00,
2014-09-01 11:43:00,77.0,69.6,29.99,West,270,0.0,5.0,78,0.00,CLR,SKC,0.00,766.0,WeatherDisplay:10.37,2014-09-01 15:43:00,
2014-09-01 11:53:00,77.0,69.6,29.99,West,270,0.0,5.0,78,0.00,CLR,SKC,0.00,766.0,WeatherDisplay:10.37,2014-09-01 15:53:00,
2014-09-01 12:03:00,75.4,69.5,29.98,West,270,0.0,7.0,82,0.00,BKN,SKC,0.00,245.0,WeatherDisplay:10.37,2014-09-01 16:03:00,
2014-09-01 12:13:00,75.4,69.5,29.98,West,270,0.0,7.0,82,0.00,BKN,SKC,0.00,245.0,WeatherDisplay:10.37,2014-09-01 16:13:00,
2014-09-01 12:23:00,75.4,69.5,29.98,West,270,0.0,7.0,82,0.00,BKN,SKC,0.00,245.0,WeatherDisplay:10.37,2014-09-01 16:23:00,
2014-09-01 12:33:00,76.7,70.8,29.98,West,270,0.0,7.0,82,0.00,BKN,SKC,0.00,299.0,WeatherDisplay:10.37,2014-09-01 16:33:00,
2014-09-01 12:43:00,76.7,70.8,29.98,West,270,0.0,4.0,82,0.00,BKN,SKC,0.00,299.0,WeatherDisplay:10.37,2014-09-01 16:43:00,
2014-09-01 12:53:00,76.7,70.8,29.98,West,270,0.0,4.0,82,0.00,BKN,SKC,0.00,299.0,WeatherDisplay:10.37,2014-09-01 16:53:00,
2014-09-01 13:03:00,77.2,70.2,29.98,West,270,0.0,7.0,79,0.00,BKN,SKC,0.00,224.0,WeatherDisplay:10.37,2014-09-01 17:03:00,
2014-09-01 13:13:00,77.2,70.2,29.98,West,270,0.0,7.0,79,0.00,BKN,SKC,0.00,224.0,WeatherDisplay:10.37,2014-09-01 17:13:00,
2014-09-01 13:23:00,77.2,70.2,29.98,West,270,0.0,7.0,79,0.00,BKN,SKC,0.00,224.0,WeatherDisplay:10.37,2014-09-01 17:23:00,
2014-09-01 13:33:00,77.0,69.6,29.98,West,270,0.0,7.0,78,0.00,SCT,SKC,0.00,493.0,WeatherDisplay:10.37,2014-09-01 17:33:00,
2014-09-01 13:43:00,77.0,69.6,29.98,West,270,0.0,7.0,78,0.00,SCT,SKC,0.00,493.0,WeatherDisplay:10.37,2014-09-01 17:43:00,
2014-09-01 13:53:00,77.0,69.6,29.98,West,270,0.0,7.0,78,0.00,SCT,SKC,0.00,493.0,WeatherDisplay:10.37,2014-09-01 17:53:00,
2014-09-01 14:03:00,78.8,69.4,29.97,West,270,0.0,9.0,73,0.00,BKN,SKC,0.00,432.0,WeatherDisplay:10.37,2014-09-01 18:03:00,
2014-09-01 14:13:00,78.8,69.4,29.97,West,270,0.0,9.0,73,0.00,SCT,SKC,0.00,432.0,WeatherDisplay:10.37,2014-09-01 18:13:00,
2014-09-01 14:23:00,78.8,69.4,29.97,West,270,0.0,9.0,73,0.00,SCT,SKC,0.00,432.0,WeatherDisplay:10.37,2014-09-01 18:23:00,
2014-09-01 14:32:00,81.0,70.3,29.96,East,80,9.2,9.2,70,0.00,CLR,SKC,0.00,749.0,WeatherDisplay:10.37,2014-09-01 18:32:00,
2014-09-01 14:37:00,80.8,67.9,29.95,WNW,290,6.9,6.9,65,0.00,CLR,SKC,0.00,668.0,WeatherDisplay:10.37,2014-09-01 18:37:00,
2014-09-01 14:42:00,79.7,67.8,29.95,West,275,1.2,1.2,67,0.00,BKN,SKC,0.00,120.0,WeatherDisplay:10.37,2014-09-01 18:42:00,
2014-09-01 14:47:00,79.4,69.6,29.95,West,275,1.0,1.0,72,0.00,CLR,SKC,0.00,694.0,WeatherDisplay:10.37,2014-09-01 18:47:00,
2014-09-01 14:52:00,80.6,69.9,29.95,West,277,3.5,3.5,70,0.00,CLR,SKC,0.00,752.0,WeatherDisplay:10.37,2014-09-01 18:52:00,
2014-09-01 14:57:00,81.1,68.2,29.95,NNW,344,0.0,0.0,65,0.00,CLR,SKC,0.00,770.0,WeatherDisplay:10.37,2014-09-01 18:57:00,
2014-09-01 15:02:00,81.2,67.9,29.95,WNW,290,1.2,1.2,64,0.00,CLR,SKC,0.00,821.0,WeatherDisplay:10.37,2014-09-01 19:02:00,
2014-09-01 15:07:00,81.9,69.9,29.95,NW,312,2.3,0.0,67,0.00,CLR,SKC,0.00,703.0,WeatherDisplay:10.37,2014-09-01 19:07:00,
2014-09-01 15:12:00,81.4,68.5,29.95,West,281,3.5,3.5,65,0.00,CLR,SKC,0.00,687.0,WeatherDisplay:10.37,2014-09-01 19:12:00,